sensor_id;sensor_type;location;lat;lon;timestamp;P1;durP1;ratioP1;P2;durP2;ratioP2
75090;SDS011;63674;48.048;8.306;2022-11-15T00:01:26;7.18;;;3.20;;
75090;SDS011;63674;48.048;8.306;2022-11-15T00:03:55;8.07;;;3.45;;
75090;SDS011;63674;48.048;8.306;2022-11-15T00:06:23;8.40;;;3.30;;
75090;SDS011;63674;48.048;8.306;2022-11-15T00:08:52;9.88;;;3.47;;
75090;SDS011;63674;48.048;8.306;2022-11-15T00:11:20;10.57;;;4.35;;
75090;SDS011;63674;48.048;8.306;2022-11-15T00:13:50;12.68;;;5.20;;
75090;SDS011;63674;48.048;8.306;2022-11-15T00:16:19;10.93;;;3.80;;
75090;SDS011;63674;48.048;8.306;2022-11-15T00:18:47;10.48;;;4.45;;
75090;SDS011;63674;48.048;8.306;2022-11-15T00:21:16;14.10;;;5.22;;
75090;SDS011;63674;48.048;8.306;2022-11-15T00:23:45;12.95;;;5.28;;
75090;SDS011;63674;48.048;8.306;2022-11-15T00:26:14;12.52;;;5.20;;
75090;SDS011;63674;48.048;8.306;2022-11-15T00:28:42;10.93;;;4.75;;
75090;SDS011;63674;48.048;8.306;2022-11-15T00:31:13;12.60;;;4.63;;
75090;SDS011;63674;48.048;8.306;2022-11-15T00:33:42;10.80;;;4.05;;
75090;SDS011;63674;48.048;8.306;2022-11-15T00:36:12;12.43;;;4.10;;
75090;SDS011;63674;48.048;8.306;2022-11-15T00:38:41;6.88;;;3.00;;
75090;SDS011;63674;48.048;8.306;2022-11-15T00:41:09;7.80;;;3.10;;
75090;SDS011;63674;48.048;8.306;2022-11-15T00:43:38;6.18;;;2.25;;
75090;SDS011;63674;48.048;8.306;2022-11-15T00:46:10;7.50;;;2.25;;
75090;SDS011;63674;48.048;8.306;2022-11-15T00:48:40;8.05;;;3.45;;
75090;SDS011;63674;48.048;8.306;2022-11-15T00:51:08;9.25;;;3.22;;
75090;SDS011;63674;48.048;8.306;2022-11-15T00:53:37;9.82;;;4.03;;
75090;SDS011;63674;48.048;8.306;2022-11-15T00:56:06;11.77;;;4.25;;
75090;SDS011;63674;48.048;8.306;2022-11-15T00:58:34;12.70;;;4.70;;
75090;SDS011;63674;48.048;8.306;2022-11-15T01:01:06;13.18;;;4.40;;
75090;SDS011;63674;48.048;8.306;2022-11-15T01:03:38;8.93;;;4.18;;
75090;SDS011;63674;48.048;8.306;2022-11-15T01:06:08;10.75;;;4.18;;
75090;SDS011;63674;48.048;8.306;2022-11-15T01:08:38;12.18;;;4.35;;
75090;SDS011;63674;48.048;8.306;2022-11-15T01:11:08;18.95;;;5.50;;
75090;SDS011;63674;48.048;8.306;2022-11-15T01:13:39;9.00;;;3.72;;
75090;SDS011;63674;48.048;8.306;2022-11-15T01:16:08;14.13;;;4.22;;
75090;SDS011;63674;48.048;8.306;2022-11-15T01:18:40;15.05;;;4.70;;
75090;SDS011;63674;48.048;8.306;2022-11-15T01:21:09;10.95;;;4.80;;
75090;SDS011;63674;48.048;8.306;2022-11-15T01:23:41;26.25;;;5.38;;
75090;SDS011;63674;48.048;8.306;2022-11-15T01:26:10;53.22;;;5.63;;
75090;SDS011;63674;48.048;8.306;2022-11-15T01:28:42;46.20;;;5.93;;
75090;SDS011;63674;48.048;8.306;2022-11-15T01:31:12;34.97;;;5.70;;
75090;SDS011;63674;48.048;8.306;2022-11-15T01:33:45;15.20;;;4.80;;
75090;SDS011;63674;48.048;8.306;2022-11-15T01:36:15;35.70;;;5.10;;
75090;SDS011;63674;48.048;8.306;2022-11-15T01:38:45;11.15;;;4.80;;
75090;SDS011;63674;48.048;8.306;2022-11-15T01:41:18;12.43;;;5.13;;
75090;SDS011;63674;48.048;8.306;2022-11-15T01:43:51;22.98;;;5.53;;
75090;SDS011;63674;48.048;8.306;2022-11-15T01:46:23;12.05;;;4.80;;
75090;SDS011;63674;48.048;8.306;2022-11-15T01:48:59;10.35;;;4.88;;
75090;SDS011;63674;48.048;8.306;2022-11-15T01:51:32;11.10;;;4.68;;
75090;SDS011;63674;48.048;8.306;2022-11-15T01:54:04;16.00;;;6.00;;
75090;SDS011;63674;48.048;8.306;2022-11-15T01:56:37;18.88;;;6.20;;
75090;SDS011;63674;48.048;8.306;2022-11-15T01:59:13;16.40;;;6.43;;
75090;SDS011;63674;48.048;8.306;2022-11-15T02:01:42;17.70;;;6.25;;
75090;SDS011;63674;48.048;8.306;2022-11-15T02:04:13;12.88;;;4.97;;
75090;SDS011;63674;48.048;8.306;2022-11-15T02:06:44;19.10;;;6.82;;
75090;SDS011;63674;48.048;8.306;2022-11-15T02:09:16;14.20;;;5.75;;
75090;SDS011;63674;48.048;8.306;2022-11-15T02:11:45;11.63;;;5.07;;
75090;SDS011;63674;48.048;8.306;2022-11-15T02:14:15;9.98;;;4.45;;
75090;SDS011;63674;48.048;8.306;2022-11-15T02:16:48;9.45;;;4.28;;
75090;SDS011;63674;48.048;8.306;2022-11-15T02:19:34;9.40;;;4.55;;
75090;SDS011;63674;48.048;8.306;2022-11-15T02:22:35;11.80;;;4.18;;
75090;SDS011;63674;48.048;8.306;2022-11-15T02:25:18;10.68;;;3.97;;
75090;SDS011;63674;48.048;8.306;2022-11-15T02:31:23;11.75;;;4.63;;
75090;SDS011;63674;48.048;8.306;2022-11-15T02:34:00;9.75;;;4.18;;
75090;SDS011;63674;48.048;8.306;2022-11-15T02:36:38;11.95;;;4.55;;
75090;SDS011;63674;48.048;8.306;2022-11-15T02:39:14;9.05;;;4.15;;
75090;SDS011;63674;48.048;8.306;2022-11-15T02:41:53;10.38;;;4.18;;
75090;SDS011;63674;48.048;8.306;2022-11-15T02:44:26;9.25;;;4.10;;
75090;SDS011;63674;48.048;8.306;2022-11-15T02:47:02;7.85;;;3.75;;
75090;SDS011;63674;48.048;8.306;2022-11-15T02:49:40;7.10;;;3.17;;
75090;SDS011;63674;48.048;8.306;2022-11-15T02:52:14;8.57;;;3.72;;
75090;SDS011;63674;48.048;8.306;2022-11-15T02:54:52;8.45;;;3.90;;
75090;SDS011;63674;48.048;8.306;2022-11-15T02:57:25;7.75;;;3.60;;
75090;SDS011;63674;48.048;8.306;2022-11-15T03:00:06;6.80;;;3.17;;
75090;SDS011;63674;48.048;8.306;2022-11-15T03:02:51;7.50;;;3.33;;
75090;SDS011;63674;48.048;8.306;2022-11-15T03:05:37;7.63;;;3.10;;
75090;SDS011;63674;48.048;8.306;2022-11-15T03:08:15;9.85;;;3.58;;
75090;SDS011;63674;48.048;8.306;2022-11-15T03:10:52;9.07;;;3.25;;
75090;SDS011;63674;48.048;8.306;2022-11-15T03:13:33;9.48;;;4.00;;
75090;SDS011;63674;48.048;8.306;2022-11-15T03:16:08;7.53;;;3.15;;
75090;SDS011;63674;48.048;8.306;2022-11-15T03:18:45;9.80;;;3.97;;
75090;SDS011;63674;48.048;8.306;2022-11-15T03:21:19;8.48;;;3.92;;
75090;SDS011;63674;48.048;8.306;2022-11-15T03:23:49;8.75;;;3.78;;
75090;SDS011;63674;48.048;8.306;2022-11-15T03:26:19;7.10;;;3.20;;
75090;SDS011;63674;48.048;8.306;2022-11-15T03:28:52;8.00;;;3.50;;
75090;SDS011;63674;48.048;8.306;2022-11-15T03:31:23;8.27;;;3.38;;
75090;SDS011;63674;48.048;8.306;2022-11-15T03:34:21;10.43;;;3.67;;
75090;SDS011;63674;48.048;8.306;2022-11-15T03:36:55;7.72;;;3.67;;
75090;SDS011;63674;48.048;8.306;2022-11-15T03:39:23;8.05;;;3.83;;
75090;SDS011;63674;48.048;8.306;2022-11-15T03:41:56;22.38;;;8.05;;
75090;SDS011;63674;48.048;8.306;2022-11-15T03:44:40;47.75;;;16.90;;
75090;SDS011;63674;48.048;8.306;2022-11-15T03:47:16;31.33;;;11.65;;
75090;SDS011;63674;48.048;8.306;2022-11-15T03:49:51;27.95;;;10.57;;
75090;SDS011;63674;48.048;8.306;2022-11-15T03:52:23;29.52;;;10.32;;
75090;SDS011;63674;48.048;8.306;2022-11-15T03:54:52;20.85;;;7.90;;
75090;SDS011;63674;48.048;8.306;2022-11-15T03:57:23;14.27;;;5.53;;
75090;SDS011;63674;48.048;8.306;2022-11-15T03:59:52;10.75;;;4.90;;
75090;SDS011;63674;48.048;8.306;2022-11-15T04:02:20;11.32;;;4.63;;
75090;SDS011;63674;48.048;8.306;2022-11-15T04:04:50;11.05;;;5.10;;
75090;SDS011;63674;48.048;8.306;2022-11-15T04:07:19;12.85;;;4.68;;
75090;SDS011;63674;48.048;8.306;2022-11-15T04:09:48;12.00;;;4.70;;
75090;SDS011;63674;48.048;8.306;2022-11-15T04:12:35;12.30;;;4.10;;
75090;SDS011;63674;48.048;8.306;2022-11-15T04:15:08;10.48;;;4.35;;
75090;SDS011;63674;48.048;8.306;2022-11-15T04:17:40;11.80;;;4.63;;
75090;SDS011;63674;48.048;8.306;2022-11-15T04:20:12;35.22;;;13.80;;
75090;SDS011;63674;48.048;8.306;2022-11-15T04:23:03;39.10;;;16.13;;
75090;SDS011;63674;48.048;8.306;2022-11-15T04:25:52;21.00;;;8.68;;
75090;SDS011;63674;48.048;8.306;2022-11-15T04:28:22;31.73;;;13.68;;
75090;SDS011;63674;48.048;8.306;2022-11-15T04:30:51;15.23;;;6.22;;
75090;SDS011;63674;48.048;8.306;2022-11-15T04:33:20;20.48;;;7.78;;
75090;SDS011;63674;48.048;8.306;2022-11-15T04:35:50;14.07;;;6.07;;
75090;SDS011;63674;48.048;8.306;2022-11-15T04:38:37;15.07;;;5.30;;
75090;SDS011;63674;48.048;8.306;2022-11-15T04:41:06;10.52;;;4.30;;
75090;SDS011;63674;48.048;8.306;2022-11-15T04:43:34;9.55;;;3.30;;
75090;SDS011;63674;48.048;8.306;2022-11-15T04:46:02;6.07;;;2.58;;
75090;SDS011;63674;48.048;8.306;2022-11-15T04:48:31;5.47;;;2.10;;
75090;SDS011;63674;48.048;8.306;2022-11-15T04:51:01;5.65;;;1.85;;
75090;SDS011;63674;48.048;8.306;2022-11-15T04:53:30;5.43;;;1.80;;
75090;SDS011;63674;48.048;8.306;2022-11-15T04:55:59;4.30;;;1.60;;
75090;SDS011;63674;48.048;8.306;2022-11-15T04:58:27;4.00;;;1.10;;
75090;SDS011;63674;48.048;8.306;2022-11-15T05:00:56;7.80;;;2.47;;
75090;SDS011;63674;48.048;8.306;2022-11-15T05:03:25;6.10;;;1.30;;
75090;SDS011;63674;48.048;8.306;2022-11-15T05:06:12;4.72;;;1.05;;
75090;SDS011;63674;48.048;8.306;2022-11-15T05:08:40;3.25;;;0.90;;
75090;SDS011;63674;48.048;8.306;2022-11-15T05:11:09;5.13;;;1.10;;
75090;SDS011;63674;48.048;8.306;2022-11-15T05:13:38;5.00;;;0.88;;
75090;SDS011;63674;48.048;8.306;2022-11-15T05:16:06;8.27;;;1.30;;
75090;SDS011;63674;48.048;8.306;2022-11-15T05:18:35;4.32;;;0.80;;
75090;SDS011;63674;48.048;8.306;2022-11-15T05:21:07;6.68;;;1.80;;
75090;SDS011;63674;48.048;8.306;2022-11-15T05:23:40;3.50;;;1.00;;
75090;SDS011;63674;48.048;8.306;2022-11-15T05:26:09;6.30;;;1.10;;
75090;SDS011;63674;48.048;8.306;2022-11-15T05:28:38;6.15;;;0.80;;
75090;SDS011;63674;48.048;8.306;2022-11-15T05:31:08;5.72;;;1.30;;
75090;SDS011;63674;48.048;8.306;2022-11-15T05:33:40;6.38;;;1.45;;
75090;SDS011;63674;48.048;8.306;2022-11-15T05:36:11;4.73;;;0.70;;
75090;SDS011;63674;48.048;8.306;2022-11-15T05:38:46;3.80;;;0.60;;
75090;SDS011;63674;48.048;8.306;2022-11-15T05:41:17;3.50;;;0.70;;
75090;SDS011;63674;48.048;8.306;2022-11-15T05:43:49;3.80;;;0.75;;
75090;SDS011;63674;48.048;8.306;2022-11-15T05:46:18;3.83;;;0.85;;
75090;SDS011;63674;48.048;8.306;2022-11-15T05:48:48;3.33;;;0.73;;
75090;SDS011;63674;48.048;8.306;2022-11-15T05:51:18;3.38;;;0.70;;
75090;SDS011;63674;48.048;8.306;2022-11-15T05:53:49;3.75;;;0.73;;
75090;SDS011;63674;48.048;8.306;2022-11-15T05:56:19;5.30;;;0.77;;
75090;SDS011;63674;48.048;8.306;2022-11-15T05:58:48;3.08;;;0.55;;
75090;SDS011;63674;48.048;8.306;2022-11-15T06:01:22;2.80;;;0.40;;
75090;SDS011;63674;48.048;8.306;2022-11-15T06:03:52;3.28;;;0.85;;
75090;SDS011;63674;48.048;8.306;2022-11-15T06:06:21;3.25;;;0.75;;
75090;SDS011;63674;48.048;8.306;2022-11-15T06:08:51;4.32;;;0.77;;
75090;SDS011;63674;48.048;8.306;2022-11-15T06:11:19;3.05;;;0.70;;
75090;SDS011;63674;48.048;8.306;2022-11-15T06:13:48;3.10;;;0.70;;
75090;SDS011;63674;48.048;8.306;2022-11-15T06:16:16;3.58;;;0.50;;
75090;SDS011;63674;48.048;8.306;2022-11-15T06:18:45;5.15;;;0.70;;
75090;SDS011;63674;48.048;8.306;2022-11-15T06:21:14;4.28;;;0.80;;
75090;SDS011;63674;48.048;8.306;2022-11-15T06:23:42;3.78;;;1.20;;
75090;SDS011;63674;48.048;8.306;2022-11-15T06:26:12;3.23;;;0.70;;
75090;SDS011;63674;48.048;8.306;2022-11-15T06:28:41;5.10;;;0.70;;
75090;SDS011;63674;48.048;8.306;2022-11-15T06:31:09;2.90;;;0.52;;
75090;SDS011;63674;48.048;8.306;2022-11-15T06:33:39;3.00;;;0.60;;
75090;SDS011;63674;48.048;8.306;2022-11-15T06:36:08;3.20;;;0.60;;
75090;SDS011;63674;48.048;8.306;2022-11-15T06:38:43;3.40;;;0.70;;
75090;SDS011;63674;48.048;8.306;2022-11-15T06:41:13;5.60;;;2.13;;
75090;SDS011;63674;48.048;8.306;2022-11-15T06:43:43;6.50;;;1.80;;
75090;SDS011;63674;48.048;8.306;2022-11-15T06:46:11;5.70;;;2.28;;
75090;SDS011;63674;48.048;8.306;2022-11-15T06:48:40;5.53;;;2.35;;
75090;SDS011;63674;48.048;8.306;2022-11-15T06:51:09;6.70;;;2.57;;
75090;SDS011;63674;48.048;8.306;2022-11-15T06:53:37;6.53;;;2.20;;
75090;SDS011;63674;48.048;8.306;2022-11-15T06:56:06;5.57;;;2.25;;
75090;SDS011;63674;48.048;8.306;2022-11-15T06:58:37;6.45;;;2.00;;
75090;SDS011;63674;48.048;8.306;2022-11-15T07:01:07;7.03;;;2.92;;
75090;SDS011;63674;48.048;8.306;2022-11-15T07:03:38;15.57;;;6.33;;
75090;SDS011;63674;48.048;8.306;2022-11-15T07:06:08;15.52;;;5.10;;
75090;SDS011;63674;48.048;8.306;2022-11-15T07:08:37;19.48;;;6.53;;
75090;SDS011;63674;48.048;8.306;2022-11-15T07:11:08;22.77;;;8.00;;
75090;SDS011;63674;48.048;8.306;2022-11-15T07:13:38;27.08;;;9.05;;
75090;SDS011;63674;48.048;8.306;2022-11-15T07:16:07;29.43;;;9.97;;
75090;SDS011;63674;48.048;8.306;2022-11-15T07:18:38;14.38;;;4.60;;
75090;SDS011;63674;48.048;8.306;2022-11-15T07:21:08;9.98;;;4.38;;
75090;SDS011;63674;48.048;8.306;2022-11-15T07:23:39;5.82;;;2.10;;
75090;SDS011;63674;48.048;8.306;2022-11-15T07:26:08;6.85;;;2.08;;
75090;SDS011;63674;48.048;8.306;2022-11-15T07:28:38;9.73;;;2.43;;
75090;SDS011;63674;48.048;8.306;2022-11-15T07:31:07;9.95;;;3.95;;
75090;SDS011;63674;48.048;8.306;2022-11-15T07:33:36;10.32;;;4.65;;
75090;SDS011;63674;48.048;8.306;2022-11-15T07:36:06;9.80;;;4.38;;
75090;SDS011;63674;48.048;8.306;2022-11-15T07:38:36;5.82;;;2.10;;
75090;SDS011;63674;48.048;8.306;2022-11-15T07:41:08;4.43;;;1.63;;
75090;SDS011;63674;48.048;8.306;2022-11-15T07:43:38;8.80;;;2.90;;
75090;SDS011;63674;48.048;8.306;2022-11-15T07:46:07;5.05;;;2.20;;
75090;SDS011;63674;48.048;8.306;2022-11-15T07:48:37;4.20;;;1.30;;
75090;SDS011;63674;48.048;8.306;2022-11-15T07:51:11;4.13;;;1.05;;
75090;SDS011;63674;48.048;8.306;2022-11-15T07:53:41;4.77;;;1.77;;
75090;SDS011;63674;48.048;8.306;2022-11-15T07:56:10;5.60;;;1.70;;
75090;SDS011;63674;48.048;8.306;2022-11-15T07:58:40;6.90;;;2.95;;
75090;SDS011;63674;48.048;8.306;2022-11-15T08:01:09;5.32;;;2.50;;
75090;SDS011;63674;48.048;8.306;2022-11-15T08:03:38;5.05;;;1.73;;
75090;SDS011;63674;48.048;8.306;2022-11-15T08:06:07;6.60;;;2.47;;
75090;SDS011;63674;48.048;8.306;2022-11-15T08:08:35;5.13;;;1.80;;
75090;SDS011;63674;48.048;8.306;2022-11-15T08:11:04;5.22;;;1.95;;
75090;SDS011;63674;48.048;8.306;2022-11-15T08:13:32;6.13;;;2.08;;
75090;SDS011;63674;48.048;8.306;2022-11-15T08:16:03;5.85;;;2.10;;
75090;SDS011;63674;48.048;8.306;2022-11-15T08:18:32;7.20;;;2.47;;
75090;SDS011;63674;48.048;8.306;2022-11-15T08:21:01;5.32;;;2.22;;
75090;SDS011;63674;48.048;8.306;2022-11-15T08:23:31;5.28;;;2.20;;
75090;SDS011;63674;48.048;8.306;2022-11-15T08:26:00;4.93;;;1.70;;
75090;SDS011;63674;48.048;8.306;2022-11-15T08:28:30;5.05;;;1.80;;
75090;SDS011;63674;48.048;8.306;2022-11-15T08:30:59;6.13;;;2.03;;
75090;SDS011;63674;48.048;8.306;2022-11-15T08:33:29;5.97;;;2.75;;
75090;SDS011;63674;48.048;8.306;2022-11-15T08:36:00;4.95;;;2.00;;
75090;SDS011;63674;48.048;8.306;2022-11-15T08:38:29;5.93;;;2.47;;
75090;SDS011;63674;48.048;8.306;2022-11-15T08:41:00;6.40;;;2.92;;
75090;SDS011;63674;48.048;8.306;2022-11-15T08:43:32;7.63;;;3.60;;
75090;SDS011;63674;48.048;8.306;2022-11-15T08:46:01;7.20;;;2.95;;
75090;SDS011;63674;48.048;8.306;2022-11-15T08:48:31;9.45;;;4.40;;
75090;SDS011;63674;48.048;8.306;2022-11-15T08:51:00;7.35;;;3.10;;
75090;SDS011;63674;48.048;8.306;2022-11-15T08:53:29;6.90;;;3.30;;
75090;SDS011;63674;48.048;8.306;2022-11-15T08:55:57;9.17;;;3.63;;
75090;SDS011;63674;48.048;8.306;2022-11-15T08:58:26;9.85;;;4.03;;
75090;SDS011;63674;48.048;8.306;2022-11-15T09:00:55;10.80;;;3.53;;
75090;SDS011;63674;48.048;8.306;2022-11-15T09:03:23;48.25;;;16.70;;
75090;SDS011;63674;48.048;8.306;2022-11-15T09:05:55;75.65;;;29.55;;
75090;SDS011;63674;48.048;8.306;2022-11-15T09:08:25;22.47;;;9.57;;
75090;SDS011;63674;48.048;8.306;2022-11-15T09:11:13;21.92;;;9.80;;
75090;SDS011;63674;48.048;8.306;2022-11-15T09:13:42;16.25;;;7.30;;
75090;SDS011;63674;48.048;8.306;2022-11-15T09:16:11;13.25;;;5.78;;
75090;SDS011;63674;48.048;8.306;2022-11-15T09:18:41;7.57;;;2.90;;
75090;SDS011;63674;48.048;8.306;2022-11-15T09:21:11;7.50;;;3.70;;
75090;SDS011;63674;48.048;8.306;2022-11-15T09:23:40;6.60;;;2.80;;
75090;SDS011;63674;48.048;8.306;2022-11-15T09:26:09;6.93;;;2.70;;
75090;SDS011;63674;48.048;8.306;2022-11-15T09:28:37;7.20;;;2.90;;
75090;SDS011;63674;48.048;8.306;2022-11-15T09:31:08;8.38;;;3.30;;
75090;SDS011;63674;48.048;8.306;2022-11-15T09:33:37;8.23;;;3.40;;
75090;SDS011;63674;48.048;8.306;2022-11-15T09:36:07;7.25;;;3.00;;
75090;SDS011;63674;48.048;8.306;2022-11-15T09:38:38;7.57;;;3.22;;
75090;SDS011;63674;48.048;8.306;2022-11-15T09:41:24;7.32;;;3.47;;
75090;SDS011;63674;48.048;8.306;2022-11-15T09:44:16;6.55;;;2.72;;
75090;SDS011;63674;48.048;8.306;2022-11-15T09:47:03;3.70;;;1.00;;
75090;SDS011;63674;48.048;8.306;2022-11-15T09:50:08;3.60;;;0.93;;
75090;SDS011;63674;48.048;8.306;2022-11-15T09:52:39;4.22;;;1.20;;
75090;SDS011;63674;48.048;8.306;2022-11-15T09:55:14;5.57;;;1.95;;
75090;SDS011;63674;48.048;8.306;2022-11-15T09:57:50;4.22;;;1.10;;
75090;SDS011;63674;48.048;8.306;2022-11-15T10:00:30;4.70;;;1.30;;
75090;SDS011;63674;48.048;8.306;2022-11-15T10:03:13;4.20;;;1.38;;
75090;SDS011;63674;48.048;8.306;2022-11-15T10:05:45;4.50;;;1.30;;
75090;SDS011;63674;48.048;8.306;2022-11-15T10:08:31;6.70;;;1.10;;
75090;SDS011;63674;48.048;8.306;2022-11-15T10:11:15;3.67;;;1.10;;
75090;SDS011;63674;48.048;8.306;2022-11-15T10:14:04;5.00;;;1.20;;
75090;SDS011;63674;48.048;8.306;2022-11-15T10:16:52;3.63;;;0.85;;
75090;SDS011;63674;48.048;8.306;2022-11-15T10:19:49;5.00;;;1.30;;
75090;SDS011;63674;48.048;8.306;2022-11-15T10:22:34;4.10;;;1.20;;
75090;SDS011;63674;48.048;8.306;2022-11-15T10:25:13;3.70;;;1.10;;
75090;SDS011;63674;48.048;8.306;2022-11-15T10:27:52;3.83;;;1.00;;
75090;SDS011;63674;48.048;8.306;2022-11-15T10:30:28;43.53;;;8.32;;
75090;SDS011;63674;48.048;8.306;2022-11-15T10:33:09;9.27;;;3.08;;
75090;SDS011;63674;48.048;8.306;2022-11-15T10:38:50;4.40;;;0.60;;
75090;SDS011;63674;48.048;8.306;2022-11-15T10:41:29;3.20;;;0.70;;
75090;SDS011;63674;48.048;8.306;2022-11-15T10:44:07;3.53;;;0.90;;
75090;SDS011;63674;48.048;8.306;2022-11-15T10:47:05;3.10;;;0.70;;
75090;SDS011;63674;48.048;8.306;2022-11-15T10:49:53;3.83;;;0.90;;
75090;SDS011;63674;48.048;8.306;2022-11-15T10:52:31;3.30;;;0.80;;
75090;SDS011;63674;48.048;8.306;2022-11-15T10:55:05;3.67;;;0.83;;
75090;SDS011;63674;48.048;8.306;2022-11-15T10:57:51;3.40;;;0.93;;
75090;SDS011;63674;48.048;8.306;2022-11-15T11:00:36;3.50;;;1.10;;
75090;SDS011;63674;48.048;8.306;2022-11-15T11:03:08;4.38;;;0.98;;
75090;SDS011;63674;48.048;8.306;2022-11-15T11:06:09;3.53;;;1.08;;
75090;SDS011;63674;48.048;8.306;2022-11-15T11:08:40;3.13;;;0.80;;
75090;SDS011;63674;48.048;8.306;2022-11-15T11:11:22;4.75;;;1.88;;
75090;SDS011;63674;48.048;8.306;2022-11-15T11:13:51;3.92;;;0.80;;
75090;SDS011;63674;48.048;8.306;2022-11-15T11:16:33;3.78;;;1.10;;
75090;SDS011;63674;48.048;8.306;2022-11-15T11:22:17;5.60;;;1.30;;
75090;SDS011;63674;48.048;8.306;2022-11-15T11:24:56;4.38;;;1.40;;
75090;SDS011;63674;48.048;8.306;2022-11-15T11:27:52;4.68;;;1.40;;
75090;SDS011;63674;48.048;8.306;2022-11-15T11:30:37;4.45;;;0.90;;
75090;SDS011;63674;48.048;8.306;2022-11-15T11:33:17;3.95;;;0.88;;
75090;SDS011;63674;48.048;8.306;2022-11-15T11:35:51;4.43;;;0.90;;
75090;SDS011;63674;48.048;8.306;2022-11-15T11:38:34;3.13;;;0.80;;
75090;SDS011;63674;48.048;8.306;2022-11-15T11:41:38;3.53;;;0.80;;
75090;SDS011;63674;48.048;8.306;2022-11-15T11:44:23;4.78;;;1.88;;
75090;SDS011;63674;48.048;8.306;2022-11-15T11:47:00;4.32;;;0.70;;
75090;SDS011;63674;48.048;8.306;2022-11-15T11:49:35;3.50;;;0.90;;
75090;SDS011;63674;48.048;8.306;2022-11-15T11:52:12;5.15;;;1.00;;
75090;SDS011;63674;48.048;8.306;2022-11-15T11:54:47;3.65;;;0.90;;
75090;SDS011;63674;48.048;8.306;2022-11-15T11:57:28;3.38;;;0.80;;
75090;SDS011;63674;48.048;8.306;2022-11-15T12:00:09;4.35;;;1.10;;
75090;SDS011;63674;48.048;8.306;2022-11-15T12:02:47;5.50;;;1.10;;
75090;SDS011;63674;48.048;8.306;2022-11-15T12:05:30;3.80;;;0.80;;
75090;SDS011;63674;48.048;8.306;2022-11-15T12:08:09;3.47;;;0.80;;
75090;SDS011;63674;48.048;8.306;2022-11-15T12:10:53;3.40;;;0.90;;
75090;SDS011;63674;48.048;8.306;2022-11-15T12:13:30;3.35;;;0.65;;
75090;SDS011;63674;48.048;8.306;2022-11-15T12:16:05;3.63;;;0.90;;
75090;SDS011;63674;48.048;8.306;2022-11-15T12:18:40;3.42;;;0.90;;
75090;SDS011;63674;48.048;8.306;2022-11-15T12:21:15;3.58;;;0.70;;
75090;SDS011;63674;48.048;8.306;2022-11-15T12:23:54;3.40;;;0.73;;
75090;SDS011;63674;48.048;8.306;2022-11-15T12:26:31;3.30;;;0.70;;
75090;SDS011;63674;48.048;8.306;2022-11-15T12:29:09;5.70;;;2.40;;
75090;SDS011;63674;48.048;8.306;2022-11-15T12:31:47;6.88;;;1.80;;
75090;SDS011;63674;48.048;8.306;2022-11-15T12:34:29;4.15;;;0.93;;
75090;SDS011;63674;48.048;8.306;2022-11-15T12:40:27;5.68;;;2.10;;
75090;SDS011;63674;48.048;8.306;2022-11-15T12:46:10;7.30;;;2.58;;
75090;SDS011;63674;48.048;8.306;2022-11-15T12:48:53;5.03;;;1.50;;
75090;SDS011;63674;48.048;8.306;2022-11-15T12:54:54;6.18;;;2.42;;
75090;SDS011;63674;48.048;8.306;2022-11-15T12:57:38;6.77;;;2.37;;
75090;SDS011;63674;48.048;8.306;2022-11-15T13:03:16;6.07;;;1.70;;
75090;SDS011;63674;48.048;8.306;2022-11-15T13:05:57;4.18;;;1.35;;
75090;SDS011;63674;48.048;8.306;2022-11-15T13:08:40;4.38;;;1.50;;
75090;SDS011;63674;48.048;8.306;2022-11-15T13:17:25;3.85;;;1.00;;
75090;SDS011;63674;48.048;8.306;2022-11-15T13:20:26;4.68;;;0.90;;
75090;SDS011;63674;48.048;8.306;2022-11-15T13:23:02;3.38;;;0.80;;
75090;SDS011;63674;48.048;8.306;2022-11-15T13:28:42;4.55;;;1.05;;
75090;SDS011;63674;48.048;8.306;2022-11-15T13:31:19;3.60;;;0.90;;
75090;SDS011;63674;48.048;8.306;2022-11-15T13:33:56;3.30;;;0.80;;
75090;SDS011;63674;48.048;8.306;2022-11-15T13:36:29;5.15;;;0.90;;
75090;SDS011;63674;48.048;8.306;2022-11-15T13:39:02;5.07;;;0.87;;
75090;SDS011;63674;48.048;8.306;2022-11-15T13:41:33;3.75;;;0.88;;
75090;SDS011;63674;48.048;8.306;2022-11-15T13:44:05;5.40;;;0.80;;
75090;SDS011;63674;48.048;8.306;2022-11-15T13:46:48;3.38;;;0.80;;
75090;SDS011;63674;48.048;8.306;2022-11-15T13:49:28;3.88;;;1.00;;
75090;SDS011;63674;48.048;8.306;2022-11-15T13:51:59;4.47;;;1.40;;
75090;SDS011;63674;48.048;8.306;2022-11-15T13:54:33;4.65;;;1.30;;
75090;SDS011;63674;48.048;8.306;2022-11-15T13:57:04;4.90;;;1.00;;
75090;SDS011;63674;48.048;8.306;2022-11-15T13:59:45;4.80;;;1.20;;
75090;SDS011;63674;48.048;8.306;2022-11-15T14:02:17;4.50;;;1.40;;
75090;SDS011;63674;48.048;8.306;2022-11-15T14:04:48;4.10;;;1.00;;
75090;SDS011;63674;48.048;8.306;2022-11-15T14:07:20;6.47;;;0.80;;
75090;SDS011;63674;48.048;8.306;2022-11-15T14:09:51;4.78;;;0.93;;
75090;SDS011;63674;48.048;8.306;2022-11-15T14:12:24;3.40;;;0.68;;
75090;SDS011;63674;48.048;8.306;2022-11-15T14:15:00;4.05;;;1.00;;
75090;SDS011;63674;48.048;8.306;2022-11-15T14:17:47;4.57;;;0.90;;
75090;SDS011;63674;48.048;8.306;2022-11-15T14:20:19;4.38;;;0.90;;
75090;SDS011;63674;48.048;8.306;2022-11-15T14:22:57;4.65;;;1.30;;
75090;SDS011;63674;48.048;8.306;2022-11-15T14:25:28;4.95;;;1.40;;
75090;SDS011;63674;48.048;8.306;2022-11-15T14:28:11;6.45;;;1.98;;
75090;SDS011;63674;48.048;8.306;2022-11-15T14:30:45;11.67;;;3.30;;
75090;SDS011;63674;48.048;8.306;2022-11-15T14:33:21;9.57;;;2.78;;
75090;SDS011;63674;48.048;8.306;2022-11-15T14:35:55;7.82;;;2.65;;
75090;SDS011;63674;48.048;8.306;2022-11-15T14:38:25;5.72;;;2.30;;
75090;SDS011;63674;48.048;8.306;2022-11-15T14:40:54;5.57;;;1.60;;
75090;SDS011;63674;48.048;8.306;2022-11-15T14:43:23;6.40;;;2.30;;
75090;SDS011;63674;48.048;8.306;2022-11-15T14:45:53;9.00;;;2.13;;
75090;SDS011;63674;48.048;8.306;2022-11-15T14:48:21;6.32;;;2.20;;
75090;SDS011;63674;48.048;8.306;2022-11-15T14:50:50;6.85;;;2.67;;
75090;SDS011;63674;48.048;8.306;2022-11-15T14:53:19;6.05;;;2.97;;
75090;SDS011;63674;48.048;8.306;2022-11-15T14:55:48;5.00;;;2.30;;
75090;SDS011;63674;48.048;8.306;2022-11-15T14:58:17;5.78;;;2.60;;
75090;SDS011;63674;48.048;8.306;2022-11-15T15:00:45;7.25;;;2.75;;
75090;SDS011;63674;48.048;8.306;2022-11-15T15:03:15;8.68;;;4.25;;
75090;SDS011;63674;48.048;8.306;2022-11-15T15:05:44;6.68;;;3.40;;
75090;SDS011;63674;48.048;8.306;2022-11-15T15:08:12;6.93;;;3.40;;
75090;SDS011;63674;48.048;8.306;2022-11-15T15:10:42;6.05;;;2.00;;
75090;SDS011;63674;48.048;8.306;2022-11-15T15:13:15;6.63;;;2.25;;
75090;SDS011;63674;48.048;8.306;2022-11-15T15:15:46;5.93;;;2.40;;
75090;SDS011;63674;48.048;8.306;2022-11-15T15:18:17;9.35;;;2.30;;
75090;SDS011;63674;48.048;8.306;2022-11-15T15:20:47;5.40;;;2.30;;
75090;SDS011;63674;48.048;8.306;2022-11-15T15:23:22;8.60;;;3.03;;
75090;SDS011;63674;48.048;8.306;2022-11-15T15:25:53;7.20;;;2.60;;
75090;SDS011;63674;48.048;8.306;2022-11-15T15:28:21;7.78;;;2.58;;
75090;SDS011;63674;48.048;8.306;2022-11-15T15:30:56;6.20;;;2.50;;
75090;SDS011;63674;48.048;8.306;2022-11-15T15:33:26;6.90;;;2.43;;
75090;SDS011;63674;48.048;8.306;2022-11-15T15:35:55;6.10;;;2.35;;
75090;SDS011;63674;48.048;8.306;2022-11-15T15:38:23;7.07;;;2.58;;
75090;SDS011;63674;48.048;8.306;2022-11-15T15:40:52;6.68;;;2.67;;
75090;SDS011;63674;48.048;8.306;2022-11-15T15:43:21;9.57;;;3.00;;
75090;SDS011;63674;48.048;8.306;2022-11-15T15:45:50;6.70;;;2.77;;
75090;SDS011;63674;48.048;8.306;2022-11-15T15:48:18;7.32;;;2.88;;
75090;SDS011;63674;48.048;8.306;2022-11-15T15:50:48;9.70;;;3.10;;
75090;SDS011;63674;48.048;8.306;2022-11-15T15:53:17;5.80;;;2.63;;